Kaneohe Bay MCAS (Marion E. Carl Field) Airport Kaneohe US
ICAO: PHNG
IATA:
Category: Medium
Scheduled Services:

Elevation: 24 ft
TransAlt. 18000 ft.

Airport Communications:
APP/DEP:125
ATIS:28.45
CLNC DEL:29.47
CTAF:120.7
GND:38.28
PMSV METRO:34.46
PTD:30.72
TWR:120.7

PHNG Zoom In..

If Map Doesn't Load, Click Here

Runways:

(A) RW 04 length 7771 ft width 200 ft
---- / hdg 41

(B) RW 22 length 7771 ft width 200 ft
---- / hdg 221

Location; PHNG
Day. 21 / Time. 16.23 Zulu
* Altimeter: 29.90
* Temperature: 26° c. 78.8°f.
* Wind from: 110° Speed 08 kn.
Dewpoint: 23° c.
Visibility: 10 Statute Miles.
Clouds: Broken 1900 ft.

PHNG 211623Z AUTO 11008KT 10SM BKN019 26/23 A2990 RMK AO2 T02610233 $


Wind From 110°
Speed 08 kn.

 
 
jpsmedia.com for Web Design worldairports.se 2018   terms of use